Kezdőlap
METAR-TAF:

METAR-TAF

Repülőterek :

Vicebszk, Fehéroroszország

földrajzi szélesség: 55-10N, földrajzi hosszúság: 030-13E, magasság: 176 m

Jelenlegi meteorológiai megfigyelések

A jelentés 4 órával és 28 perccel ezelõtt készült, 16:00 UTC
Északi szél 4 kt
Hőmérséklet -3°C
Páratartalom 100%
Légköri nyomás 1043 hPa
Látótávolság: 0250 m
zúzmarás köd

METAR: UMII 161600Z 01002MPS 0250 R23/0650 FZFG VV001 M03/M03 Q1043 NOSIG RMK QBB030

Idő: 23:28 (20:28 UTC)

Előrejelzés

A jelentés 6 órával és 23 perccel ezelõtt készült, 14:05 UTC
Az előrejelzés 16-én 15 óra UTC és 16-én 24 óra UTC között érvényes
Különbözõ irányokból fújó szél 4 kt
Látótávolság: 0400 m
100 lábon
zúzmarás köd
16-én 15 óra UTC és 16-én 24 óra UTC között ideiglenes
Látótávolság: 1000 m
Szakadozott felhőzet 300 lábon
ónos szitálás, Párásság

TAF: UMII 161405Z 1615/1624 VRB02MPS 0400 FZFG VV001 TEMPO 1615/1624 1000 FZDZ BR BKN003

Meteorológiai megfigyelések és előrejelzések több, mint 4000 repülőtéren (METAR és TAF jelentéseket).

A térképen piros és sárga pontok jelzik az elérhető meteorológiai állomásokat.

Mozgassa az egeret a pont fölött, hogy megjelenjen az állomás neve.

Azután kattintson az időjárási megfigyelések és előrejelzések megtekintéséhez.

A térkép megváltoztatása: kattintson a fekete keresztel jelölt zöld gombra ráközelítéshez, a vonallal jelölt zöld gombra távolításhoz, vagy a zöld nyilakra a szomszédos térképek eléréséhez.


METAR-TAF: